Погода Мочальникина 2 недели

Смоленская область, Россия

23 мая-05 июня
  • 23мая
    Сегодня
    +6°
    +21°
    Ясно и безоблачно
    ВремяПогодаТемператураВлажностьДавлениеВетер, м/сВероятность осадков
    00:00Ясно и безоблачно+12°C51 %752 мм1.1 м/с2 %
    03:00Ясно и безоблачно+10°C54 %753 мм1.4 м/с2 %
    06:00Ясно и безоблачно+10°C56 %754 мм1.2 м/с2 %
    09:00Ясно и безоблачно+16°C46 %755 мм2.4 м/с2 %
    12:00Ясно и безоблачно+20°C33 %755 мм3.3 м/с2 %
    15:00Ясно и безоблачно+21°C33 %755 мм3.0 м/с2 %
    18:00Ясно и безоблачно+20°C37 %755 мм3.0 м/с2 %
    21:00Ясно и безоблачно+14°C53 %756 мм0.8 м/с2 %
  • 24мая
    Пятница
    +6°
    +21°
    Ясно и безоблачно
    ВремяПогодаТемператураВлажностьДавлениеВетер, м/сВероятность осадков
    00:00Ясно и безоблачно+9°C58 %757 мм0.7 м/с2 %
    03:00Ясно и безоблачно+8°C59 %758 мм0.8 м/с2 %
    06:00Ясно и безоблачно+8°C62 %758 мм0.3 м/с2 %
    09:00Ясно и безоблачно+15°C40 %759 мм1.7 м/с2 %
    12:00Ясно и безоблачно+19°C32 %759 мм2.6 м/с2 %
    15:00Ясно и безоблачно+20°C30 %758 мм2.1 м/с2 %
    18:00Ясно и безоблачно+20°C34 %757 мм1.9 м/с2 %
    21:00Ясно и безоблачно+13°C54 %757 мм0.7 м/с2 %
  • 25мая
    Суббота
    +9°
    +23°
    Практически безоблачно
    ВремяПогодаТемператураВлажностьДавлениеВетер, м/сВероятность осадков
    00:00Ясно и безоблачно+9°C64 %757 мм0.5 м/с2 %
    03:00Ясно и безоблачно+7°C71 %757 мм0.6 м/с2 %
    06:00Ясно и безоблачно+8°C73 %757 мм0.4 м/с2 %
    09:00Ясно и безоблачно+16°C53 %757 мм1.6 м/с2 %
    12:00Ясно и безоблачно+21°C36 %756 мм2.0 м/с2 %
    15:00Практически безоблачно+23°C34 %755 мм2.0 м/с2 %
    18:00Ясно и безоблачно+23°C37 %754 мм1.4 м/с2 %
    21:00Ясно и безоблачно+15°C59 %753 мм0.1 м/с2 %
  • 26мая
    Воскресенье
    +12°
    +26°
    Ясно и безоблачно
    ВремяПогодаТемператураВлажностьДавлениеВетер, м/сВероятность осадков
    00:00Ясно и безоблачно+12°C67 %753 мм0.0 м/с2 %
    03:00Ясно и безоблачно+10°C68 %752 мм0.3 м/с2 %
    06:00Ясно и безоблачно+11°C70 %752 мм0.0 м/с2 %
    09:00Практически безоблачно+19°C57 %752 мм1.2 м/с2 %
    12:00Практически безоблачно+24°C39 %752 мм1.8 м/с5 %
    15:00Ясно и безоблачно+26°C35 %752 мм1.6 м/с16 %
    18:00Облачно с прояснениями+25°C38 %751 мм1.1 м/с26 %
    21:00Ясно и безоблачно+18°C60 %751 мм0.6 м/с10 %
  • 27мая
    Понедельник
    +9°
    +25°
    Ясно и безоблачно
    ВремяПогодаТемператураВлажностьДавлениеВетер, м/сВероятность осадков
    00:00Облачно с прояснениями+15°C81 %752 мм1.4 м/с4 %
    03:00Практически безоблачно+13°C94 %753 мм1.2 м/с2 %
    06:00Пасмурно, сплошная облачность+12°C93 %754 мм1.6 м/с4 %
    09:00Небольшая облачность+17°C73 %754 мм2.2 м/с7 %
    12:00Ясно и безоблачно+21°C56 %755 мм2.3 м/с17 %
    15:00Ясно и безоблачно+23°C43 %754 мм1.8 м/с19 %
    18:00Ясно и безоблачно+24°C39 %754 мм1.4 м/с19 %
    21:00Ясно и безоблачно+17°C57 %754 мм0.5 м/с6 %
Мы используем cookies
Соглашаюсь